sensor_id;sensor_type;location;lat;lon;timestamp;P1;durP1;ratioP1;P2;durP2;ratioP2
8094;SDS011;4090;49.270;8.696;2023-12-04T00:00:16;18.97;;;8.73;;
8094;SDS011;4090;49.270;8.696;2023-12-04T00:02:58;19.13;;;8.97;;
8094;SDS011;4090;49.270;8.696;2023-12-04T00:05:43;22.33;;;9.60;;
8094;SDS011;4090;49.270;8.696;2023-12-04T00:08:25;22.50;;;9.37;;
8094;SDS011;4090;49.270;8.696;2023-12-04T00:11:07;23.80;;;10.43;;
8094;SDS011;4090;49.270;8.696;2023-12-04T00:13:49;24.93;;;9.93;;
8094;SDS011;4090;49.270;8.696;2023-12-04T00:16:33;20.17;;;9.20;;
8094;SDS011;4090;49.270;8.696;2023-12-04T00:19:14;23.00;;;9.73;;
8094;SDS011;4090;49.270;8.696;2023-12-04T00:21:58;18.77;;;9.30;;
8094;SDS011;4090;49.270;8.696;2023-12-04T00:24:40;24.20;;;9.67;;
8094;SDS011;4090;49.270;8.696;2023-12-04T00:27:21;23.63;;;10.10;;
8094;SDS011;4090;49.270;8.696;2023-12-04T00:30:07;23.77;;;10.60;;
8094;SDS011;4090;49.270;8.696;2023-12-04T00:32:49;25.77;;;10.20;;
8094;SDS011;4090;49.270;8.696;2023-12-04T00:35:31;20.97;;;9.63;;
8094;SDS011;4090;49.270;8.696;2023-12-04T00:38:14;19.57;;;9.30;;
8094;SDS011;4090;49.270;8.696;2023-12-04T00:40:56;23.77;;;8.97;;
8094;SDS011;4090;49.270;8.696;2023-12-04T00:43:38;22.03;;;9.67;;
8094;SDS011;4090;49.270;8.696;2023-12-04T00:46:20;22.43;;;9.90;;
8094;SDS011;4090;49.270;8.696;2023-12-04T00:49:02;24.67;;;9.83;;
8094;SDS011;4090;49.270;8.696;2023-12-04T00:51:43;23.23;;;10.27;;
8094;SDS011;4090;49.270;8.696;2023-12-04T00:54:27;19.80;;;9.27;;
8094;SDS011;4090;49.270;8.696;2023-12-04T00:57:08;21.33;;;10.30;;
8094;SDS011;4090;49.270;8.696;2023-12-04T00:59:50;23.37;;;10.00;;
8094;SDS011;4090;49.270;8.696;2023-12-04T01:02:32;21.00;;;9.73;;
8094;SDS011;4090;49.270;8.696;2023-12-04T01:05:14;19.60;;;9.80;;
8094;SDS011;4090;49.270;8.696;2023-12-04T01:07:57;21.80;;;9.63;;
8094;SDS011;4090;49.270;8.696;2023-12-04T01:10:40;21.27;;;9.43;;
8094;SDS011;4090;49.270;8.696;2023-12-04T01:13:22;22.67;;;9.93;;
8094;SDS011;4090;49.270;8.696;2023-12-04T01:16:04;23.60;;;9.57;;
8094;SDS011;4090;49.270;8.696;2023-12-04T01:18:46;20.23;;;8.63;;
8094;SDS011;4090;49.270;8.696;2023-12-04T01:21:28;20.70;;;9.30;;
8094;SDS011;4090;49.270;8.696;2023-12-04T01:24:11;23.70;;;9.57;;
8094;SDS011;4090;49.270;8.696;2023-12-04T01:26:54;21.20;;;9.23;;
8094;SDS011;4090;49.270;8.696;2023-12-04T01:29:36;18.40;;;9.00;;
8094;SDS011;4090;49.270;8.696;2023-12-04T01:32:17;21.13;;;9.20;;
8094;SDS011;4090;49.270;8.696;2023-12-04T01:34:59;23.43;;;9.50;;
8094;SDS011;4090;49.270;8.696;2023-12-04T01:37:41;22.37;;;9.33;;
8094;SDS011;4090;49.270;8.696;2023-12-04T01:40:23;22.40;;;9.57;;
8094;SDS011;4090;49.270;8.696;2023-12-04T01:43:06;21.10;;;8.90;;
8094;SDS011;4090;49.270;8.696;2023-12-04T01:45:48;24.93;;;10.13;;
8094;SDS011;4090;49.270;8.696;2023-12-04T01:48:31;20.37;;;8.80;;
8094;SDS011;4090;49.270;8.696;2023-12-04T01:51:13;18.23;;;9.00;;
8094;SDS011;4090;49.270;8.696;2023-12-04T01:53:55;17.83;;;8.53;;
8094;SDS011;4090;49.270;8.696;2023-12-04T01:56:41;20.83;;;9.23;;
8094;SDS011;4090;49.270;8.696;2023-12-04T01:59:26;23.17;;;9.73;;
8094;SDS011;4090;49.270;8.696;2023-12-04T02:02:08;20.57;;;9.80;;
8094;SDS011;4090;49.270;8.696;2023-12-04T02:04:51;19.67;;;9.10;;
8094;SDS011;4090;49.270;8.696;2023-12-04T02:07:35;19.83;;;8.43;;
8094;SDS011;4090;49.270;8.696;2023-12-04T02:10:18;19.13;;;8.83;;
8094;SDS011;4090;49.270;8.696;2023-12-04T02:13:00;21.20;;;9.60;;
8094;SDS011;4090;49.270;8.696;2023-12-04T02:15:43;19.77;;;8.60;;
8094;SDS011;4090;49.270;8.696;2023-12-04T02:18:26;24.07;;;9.17;;
8094;SDS011;4090;49.270;8.696;2023-12-04T02:21:08;21.13;;;9.27;;
8094;SDS011;4090;49.270;8.696;2023-12-04T02:23:52;19.53;;;8.60;;
8094;SDS011;4090;49.270;8.696;2023-12-04T02:26:34;18.63;;;8.20;;
8094;SDS011;4090;49.270;8.696;2023-12-04T02:29:26;17.60;;;8.53;;
8094;SDS011;4090;49.270;8.696;2023-12-04T02:32:11;17.53;;;8.07;;
8094;SDS011;4090;49.270;8.696;2023-12-04T02:34:57;19.53;;;8.57;;
8094;SDS011;4090;49.270;8.696;2023-12-04T02:37:40;17.50;;;8.17;;
8094;SDS011;4090;49.270;8.696;2023-12-04T02:40:24;16.87;;;7.93;;
8094;SDS011;4090;49.270;8.696;2023-12-04T02:43:07;20.10;;;8.47;;
8094;SDS011;4090;49.270;8.696;2023-12-04T02:45:49;19.37;;;8.50;;
8094;SDS011;4090;49.270;8.696;2023-12-04T02:48:30;16.97;;;8.50;;
8094;SDS011;4090;49.270;8.696;2023-12-04T02:51:12;18.30;;;8.30;;
8094;SDS011;4090;49.270;8.696;2023-12-04T02:53:54;17.20;;;7.67;;
8094;SDS011;4090;49.270;8.696;2023-12-04T02:56:37;17.13;;;7.73;;
8094;SDS011;4090;49.270;8.696;2023-12-04T02:59:19;15.57;;;7.83;;
8094;SDS011;4090;49.270;8.696;2023-12-04T03:02:01;18.23;;;8.27;;
8094;SDS011;4090;49.270;8.696;2023-12-04T03:04:45;16.73;;;7.70;;
8094;SDS011;4090;49.270;8.696;2023-12-04T03:07:27;16.43;;;8.27;;
8094;SDS011;4090;49.270;8.696;2023-12-04T03:10:08;18.27;;;8.87;;
8094;SDS011;4090;49.270;8.696;2023-12-04T03:12:52;18.03;;;8.13;;
8094;SDS011;4090;49.270;8.696;2023-12-04T03:15:33;19.37;;;7.73;;
8094;SDS011;4090;49.270;8.696;2023-12-04T03:18:15;17.83;;;7.60;;
8094;SDS011;4090;49.270;8.696;2023-12-04T03:20:57;15.60;;;7.90;;
8094;SDS011;4090;49.270;8.696;2023-12-04T03:23:39;17.63;;;8.33;;
8094;SDS011;4090;49.270;8.696;2023-12-04T03:26:21;18.30;;;8.47;;
8094;SDS011;4090;49.270;8.696;2023-12-04T03:29:04;17.70;;;7.90;;
8094;SDS011;4090;49.270;8.696;2023-12-04T03:31:46;16.93;;;8.13;;
8094;SDS011;4090;49.270;8.696;2023-12-04T03:34:27;18.93;;;8.00;;
8094;SDS011;4090;49.270;8.696;2023-12-04T03:37:09;18.00;;;7.90;;
8094;SDS011;4090;49.270;8.696;2023-12-04T03:39:51;16.67;;;7.83;;
8094;SDS011;4090;49.270;8.696;2023-12-04T03:42:33;20.50;;;8.63;;
8094;SDS011;4090;49.270;8.696;2023-12-04T03:45:16;16.73;;;8.63;;
8094;SDS011;4090;49.270;8.696;2023-12-04T03:47:58;18.43;;;8.17;;
8094;SDS011;4090;49.270;8.696;2023-12-04T03:50:40;16.83;;;7.73;;
8094;SDS011;4090;49.270;8.696;2023-12-04T03:53:22;17.60;;;7.80;;
8094;SDS011;4090;49.270;8.696;2023-12-04T03:56:04;19.97;;;8.93;;
8094;SDS011;4090;49.270;8.696;2023-12-04T03:58:47;22.20;;;8.50;;
8094;SDS011;4090;49.270;8.696;2023-12-04T04:01:30;14.63;;;7.17;;
8094;SDS011;4090;49.270;8.696;2023-12-04T04:04:12;15.67;;;7.33;;
8094;SDS011;4090;49.270;8.696;2023-12-04T04:06:54;15.00;;;7.53;;
8094;SDS011;4090;49.270;8.696;2023-12-04T04:09:35;17.63;;;7.97;;
8094;SDS011;4090;49.270;8.696;2023-12-04T04:12:17;16.70;;;7.73;;
8094;SDS011;4090;49.270;8.696;2023-12-04T04:14:59;18.70;;;8.10;;
8094;SDS011;4090;49.270;8.696;2023-12-04T04:17:42;18.43;;;8.37;;
8094;SDS011;4090;49.270;8.696;2023-12-04T04:20:24;20.77;;;8.23;;
8094;SDS011;4090;49.270;8.696;2023-12-04T04:23:06;15.70;;;7.83;;
8094;SDS011;4090;49.270;8.696;2023-12-04T04:25:48;19.40;;;8.43;;
8094;SDS011;4090;49.270;8.696;2023-12-04T04:28:29;17.93;;;8.73;;
8094;SDS011;4090;49.270;8.696;2023-12-04T04:31:11;18.80;;;8.13;;
8094;SDS011;4090;49.270;8.696;2023-12-04T04:33:54;20.67;;;8.47;;
8094;SDS011;4090;49.270;8.696;2023-12-04T04:36:36;18.27;;;8.33;;
8094;SDS011;4090;49.270;8.696;2023-12-04T04:39:18;19.83;;;8.53;;
8094;SDS011;4090;49.270;8.696;2023-12-04T04:42:00;21.97;;;8.90;;
8094;SDS011;4090;49.270;8.696;2023-12-04T04:44:42;21.03;;;8.60;;
8094;SDS011;4090;49.270;8.696;2023-12-04T04:47:24;18.23;;;7.90;;
8094;SDS011;4090;49.270;8.696;2023-12-04T04:50:07;19.13;;;8.40;;
8094;SDS011;4090;49.270;8.696;2023-12-04T04:52:49;20.30;;;8.87;;
8094;SDS011;4090;49.270;8.696;2023-12-04T04:55:31;17.93;;;8.33;;
8094;SDS011;4090;49.270;8.696;2023-12-04T04:58:13;20.63;;;9.47;;
8094;SDS011;4090;49.270;8.696;2023-12-04T05:00:55;17.00;;;8.60;;
8094;SDS011;4090;49.270;8.696;2023-12-04T05:03:36;15.97;;;7.93;;
8094;SDS011;4090;49.270;8.696;2023-12-04T05:06:20;20.20;;;8.90;;
8094;SDS011;4090;49.270;8.696;2023-12-04T05:09:02;15.43;;;7.67;;
8094;SDS011;4090;49.270;8.696;2023-12-04T05:11:45;18.37;;;7.97;;
8094;SDS011;4090;49.270;8.696;2023-12-04T05:14:26;18.10;;;7.57;;
8094;SDS011;4090;49.270;8.696;2023-12-04T05:17:08;14.27;;;7.30;;
8094;SDS011;4090;49.270;8.696;2023-12-04T05:19:50;18.13;;;8.40;;
8094;SDS011;4090;49.270;8.696;2023-12-04T05:22:33;16.20;;;7.23;;
8094;SDS011;4090;49.270;8.696;2023-12-04T05:25:16;18.97;;;7.40;;
8094;SDS011;4090;49.270;8.696;2023-12-04T05:27:57;17.00;;;8.27;;
8094;SDS011;4090;49.270;8.696;2023-12-04T05:30:39;17.10;;;6.77;;
8094;SDS011;4090;49.270;8.696;2023-12-04T05:33:21;15.80;;;8.03;;
8094;SDS011;4090;49.270;8.696;2023-12-04T05:36:03;15.17;;;7.53;;
8094;SDS011;4090;49.270;8.696;2023-12-04T05:38:48;14.37;;;6.60;;
8094;SDS011;4090;49.270;8.696;2023-12-04T05:41:30;16.07;;;7.50;;
8094;SDS011;4090;49.270;8.696;2023-12-04T05:44:12;16.13;;;7.40;;
8094;SDS011;4090;49.270;8.696;2023-12-04T05:46:54;20.03;;;8.17;;
8094;SDS011;4090;49.270;8.696;2023-12-04T05:49:35;15.70;;;7.77;;
8094;SDS011;4090;49.270;8.696;2023-12-04T05:52:18;19.47;;;7.50;;
8094;SDS011;4090;49.270;8.696;2023-12-04T05:55:01;16.77;;;7.43;;
8094;SDS011;4090;49.270;8.696;2023-12-04T05:57:43;17.83;;;7.50;;
8094;SDS011;4090;49.270;8.696;2023-12-04T06:00:25;16.27;;;7.30;;
8094;SDS011;4090;49.270;8.696;2023-12-04T06:03:07;15.20;;;7.37;;
8094;SDS011;4090;49.270;8.696;2023-12-04T06:05:49;16.90;;;8.07;;
8094;SDS011;4090;49.270;8.696;2023-12-04T06:08:31;18.20;;;8.03;;
8094;SDS011;4090;49.270;8.696;2023-12-04T06:11:14;16.53;;;7.70;;
8094;SDS011;4090;49.270;8.696;2023-12-04T06:13:56;19.20;;;8.33;;
8094;SDS011;4090;49.270;8.696;2023-12-04T06:16:38;20.43;;;7.57;;
8094;SDS011;4090;49.270;8.696;2023-12-04T06:19:20;15.23;;;7.07;;
8094;SDS011;4090;49.270;8.696;2023-12-04T06:22:02;17.57;;;7.80;;
8094;SDS011;4090;49.270;8.696;2023-12-04T06:24:44;20.70;;;8.83;;
8094;SDS011;4090;49.270;8.696;2023-12-04T06:27:28;17.10;;;7.60;;
8094;SDS011;4090;49.270;8.696;2023-12-04T06:30:10;15.10;;;7.47;;
8094;SDS011;4090;49.270;8.696;2023-12-04T06:32:53;17.67;;;8.07;;
8094;SDS011;4090;49.270;8.696;2023-12-04T06:35:35;18.13;;;8.23;;
8094;SDS011;4090;49.270;8.696;2023-12-04T06:38:17;16.30;;;7.77;;
8094;SDS011;4090;49.270;8.696;2023-12-04T06:41:04;17.67;;;7.73;;
8094;SDS011;4090;49.270;8.696;2023-12-04T06:43:48;16.77;;;7.77;;
8094;SDS011;4090;49.270;8.696;2023-12-04T06:46:30;16.53;;;8.20;;
8094;SDS011;4090;49.270;8.696;2023-12-04T06:49:14;16.47;;;8.00;;
8094;SDS011;4090;49.270;8.696;2023-12-04T06:51:58;17.00;;;8.40;;
8094;SDS011;4090;49.270;8.696;2023-12-04T06:54:41;23.80;;;10.17;;
8094;SDS011;4090;49.270;8.696;2023-12-04T06:57:23;23.80;;;10.00;;
8094;SDS011;4090;49.270;8.696;2023-12-04T07:00:06;21.97;;;10.70;;
8094;SDS011;4090;49.270;8.696;2023-12-04T07:02:52;13.87;;;7.17;;
8094;SDS011;4090;49.270;8.696;2023-12-04T07:05:34;14.70;;;7.23;;
8094;SDS011;4090;49.270;8.696;2023-12-04T07:08:16;15.47;;;6.77;;
8094;SDS011;4090;49.270;8.696;2023-12-04T07:10:58;12.17;;;6.67;;
8094;SDS011;4090;49.270;8.696;2023-12-04T07:13:40;14.57;;;6.60;;
8094;SDS011;4090;49.270;8.696;2023-12-04T07:16:23;15.90;;;7.73;;
8094;SDS011;4090;49.270;8.696;2023-12-04T07:19:05;12.40;;;6.50;;
8094;SDS011;4090;49.270;8.696;2023-12-04T07:21:47;13.80;;;6.17;;
8094;SDS011;4090;49.270;8.696;2023-12-04T07:24:29;12.77;;;6.27;;
8094;SDS011;4090;49.270;8.696;2023-12-04T07:27:11;14.83;;;6.60;;
8094;SDS011;4090;49.270;8.696;2023-12-04T07:29:53;14.23;;;6.23;;
8094;SDS011;4090;49.270;8.696;2023-12-04T07:32:36;12.33;;;5.57;;
8094;SDS011;4090;49.270;8.696;2023-12-04T07:35:18;10.73;;;5.53;;
8094;SDS011;4090;49.270;8.696;2023-12-04T07:38:00;14.17;;;6.70;;
8094;SDS011;4090;49.270;8.696;2023-12-04T07:40:43;10.43;;;5.90;;
8094;SDS011;4090;49.270;8.696;2023-12-04T07:43:26;14.90;;;6.87;;
8094;SDS011;4090;49.270;8.696;2023-12-04T07:46:08;15.80;;;6.50;;
8094;SDS011;4090;49.270;8.696;2023-12-04T07:48:53;14.60;;;6.03;;
8094;SDS011;4090;49.270;8.696;2023-12-04T07:51:35;12.60;;;5.57;;
8094;SDS011;4090;49.270;8.696;2023-12-04T07:54:16;13.53;;;6.57;;
8094;SDS011;4090;49.270;8.696;2023-12-04T07:56:58;15.63;;;6.63;;
8094;SDS011;4090;49.270;8.696;2023-12-04T07:59:40;15.27;;;6.57;;
8094;SDS011;4090;49.270;8.696;2023-12-04T08:02:22;15.27;;;6.83;;
8094;SDS011;4090;49.270;8.696;2023-12-04T08:05:06;15.30;;;6.80;;
8094;SDS011;4090;49.270;8.696;2023-12-04T08:07:48;15.17;;;6.93;;
8094;SDS011;4090;49.270;8.696;2023-12-04T08:10:29;13.70;;;7.00;;
8094;SDS011;4090;49.270;8.696;2023-12-04T08:13:11;13.30;;;6.47;;
8094;SDS011;4090;49.270;8.696;2023-12-04T08:15:53;14.97;;;6.63;;
8094;SDS011;4090;49.270;8.696;2023-12-04T08:18:35;17.13;;;6.80;;
8094;SDS011;4090;49.270;8.696;2023-12-04T08:21:18;13.00;;;7.13;;
8094;SDS011;4090;49.270;8.696;2023-12-04T08:24:00;12.33;;;6.00;;
8094;SDS011;4090;49.270;8.696;2023-12-04T08:26:42;14.63;;;6.80;;
8094;SDS011;4090;49.270;8.696;2023-12-04T08:29:24;12.50;;;6.40;;
8094;SDS011;4090;49.270;8.696;2023-12-04T08:32:06;13.17;;;6.27;;
8094;SDS011;4090;49.270;8.696;2023-12-04T08:34:48;12.83;;;6.13;;
8094;SDS011;4090;49.270;8.696;2023-12-04T08:37:31;13.70;;;6.43;;
8094;SDS011;4090;49.270;8.696;2023-12-04T08:40:13;15.63;;;6.87;;
8094;SDS011;4090;49.270;8.696;2023-12-04T08:42:55;14.33;;;6.63;;
8094;SDS011;4090;49.270;8.696;2023-12-04T08:45:37;13.97;;;6.03;;
8094;SDS011;4090;49.270;8.696;2023-12-04T08:48:19;13.07;;;6.23;;
8094;SDS011;4090;49.270;8.696;2023-12-04T08:51:01;13.23;;;6.50;;
8094;SDS011;4090;49.270;8.696;2023-12-04T08:53:44;14.73;;;7.13;;
8094;SDS011;4090;49.270;8.696;2023-12-04T08:56:26;18.37;;;6.77;;
8094;SDS011;4090;49.270;8.696;2023-12-04T08:59:09;12.03;;;6.20;;
8094;SDS011;4090;49.270;8.696;2023-12-04T09:01:53;12.47;;;5.87;;
8094;SDS011;4090;49.270;8.696;2023-12-04T09:04:35;10.90;;;6.10;;
8094;SDS011;4090;49.270;8.696;2023-12-04T09:07:17;15.73;;;6.60;;
8094;SDS011;4090;49.270;8.696;2023-12-04T09:10:00;12.97;;;6.63;;
8094;SDS011;4090;49.270;8.696;2023-12-04T09:12:42;16.43;;;7.07;;
8094;SDS011;4090;49.270;8.696;2023-12-04T09:15:25;15.03;;;6.33;;
8094;SDS011;4090;49.270;8.696;2023-12-04T09:18:08;14.47;;;6.73;;
8094;SDS011;4090;49.270;8.696;2023-12-04T09:20:49;12.27;;;5.85;;
8094;SDS011;4090;49.270;8.696;2023-12-04T09:23:31;12.43;;;5.70;;
8094;SDS011;4090;49.270;8.696;2023-12-04T09:26:14;15.73;;;6.50;;
8094;SDS011;4090;49.270;8.696;2023-12-04T09:28:56;15.70;;;7.13;;
8094;SDS011;4090;49.270;8.696;2023-12-04T09:31:38;11.93;;;6.33;;
8094;SDS011;4090;49.270;8.696;2023-12-04T09:34:20;13.43;;;6.67;;
8094;SDS011;4090;49.270;8.696;2023-12-04T09:37:03;14.43;;;5.80;;
8094;SDS011;4090;49.270;8.696;2023-12-04T09:39:44;13.60;;;6.20;;
8094;SDS011;4090;49.270;8.696;2023-12-04T09:42:31;14.53;;;6.93;;
8094;SDS011;4090;49.270;8.696;2023-12-04T09:45:14;11.33;;;5.57;;
8094;SDS011;4090;49.270;8.696;2023-12-04T09:47:56;12.20;;;6.20;;
8094;SDS011;4090;49.270;8.696;2023-12-04T09:50:39;14.57;;;5.93;;
8094;SDS011;4090;49.270;8.696;2023-12-04T09:53:21;14.30;;;6.37;;
8094;SDS011;4090;49.270;8.696;2023-12-04T09:56:06;13.53;;;6.13;;
8094;SDS011;4090;49.270;8.696;2023-12-04T09:58:52;11.17;;;5.53;;
8094;SDS011;4090;49.270;8.696;2023-12-04T10:01:38;11.60;;;5.40;;
8094;SDS011;4090;49.270;8.696;2023-12-04T10:04:21;9.48;;;5.75;;
8094;SDS011;4090;49.270;8.696;2023-12-04T10:07:04;10.43;;;5.50;;
8094;SDS011;4090;49.270;8.696;2023-12-04T10:09:46;11.03;;;5.70;;
8094;SDS011;4090;49.270;8.696;2023-12-04T10:12:28;14.17;;;6.10;;
8094;SDS011;4090;49.270;8.696;2023-12-04T10:15:11;10.40;;;5.70;;
8094;SDS011;4090;49.270;8.696;2023-12-04T10:17:53;11.57;;;5.47;;
8094;SDS011;4090;49.270;8.696;2023-12-04T10:20:36;10.60;;;5.10;;
8094;SDS011;4090;49.270;8.696;2023-12-04T10:23:37;12.37;;;6.23;;
8094;SDS011;4090;49.270;8.696;2023-12-04T10:26:20;12.70;;;6.03;;
8094;SDS011;4090;49.270;8.696;2023-12-04T10:29:02;16.33;;;7.00;;
8094;SDS011;4090;49.270;8.696;2023-12-04T10:31:46;11.63;;;6.07;;
8094;SDS011;4090;49.270;8.696;2023-12-04T10:34:30;12.13;;;5.97;;
8094;SDS011;4090;49.270;8.696;2023-12-04T10:37:13;12.20;;;6.43;;
8094;SDS011;4090;49.270;8.696;2023-12-04T10:39:56;13.17;;;6.40;;
8094;SDS011;4090;49.270;8.696;2023-12-04T10:42:38;15.10;;;6.63;;
8094;SDS011;4090;49.270;8.696;2023-12-04T10:45:20;13.83;;;6.80;;
8094;SDS011;4090;49.270;8.696;2023-12-04T10:48:06;15.27;;;6.83;;
8094;SDS011;4090;49.270;8.696;2023-12-04T10:50:48;16.03;;;6.80;;
8094;SDS011;4090;49.270;8.696;2023-12-04T10:53:30;16.43;;;6.80;;
8094;SDS011;4090;49.270;8.696;2023-12-04T10:56:14;14.80;;;6.55;;
8094;SDS011;4090;49.270;8.696;2023-12-04T10:59:00;13.57;;;6.37;;
8094;SDS011;4090;49.270;8.696;2023-12-04T11:01:44;12.03;;;5.87;;
8094;SDS011;4090;49.270;8.696;2023-12-04T11:04:30;12.07;;;5.50;;
8094;SDS011;4090;49.270;8.696;2023-12-04T11:07:13;14.87;;;6.93;;
8094;SDS011;4090;49.270;8.696;2023-12-04T11:09:55;14.27;;;6.17;;
8094;SDS011;4090;49.270;8.696;2023-12-04T11:12:41;13.77;;;6.60;;
8094;SDS011;4090;49.270;8.696;2023-12-04T11:15:26;14.40;;;7.10;;
8094;SDS011;4090;49.270;8.696;2023-12-04T11:18:12;15.20;;;6.53;;
8094;SDS011;4090;49.270;8.696;2023-12-04T11:20:58;11.02;;;5.82;;
8094;SDS011;4090;49.270;8.696;2023-12-04T11:23:44;13.90;;;6.50;;
8094;SDS011;4090;49.270;8.696;2023-12-04T11:26:26;12.77;;;6.80;;
8094;SDS011;4090;49.270;8.696;2023-12-04T11:29:09;14.03;;;6.40;;
8094;SDS011;4090;49.270;8.696;2023-12-04T11:31:52;13.82;;;6.38;;
8094;SDS011;4090;49.270;8.696;2023-12-04T11:34:35;12.68;;;6.15;;
8094;SDS011;4090;49.270;8.696;2023-12-04T11:37:19;15.40;;;6.47;;
8094;SDS011;4090;49.270;8.696;2023-12-04T11:40:02;14.60;;;6.87;;
8094;SDS011;4090;49.270;8.696;2023-12-04T11:42:47;15.20;;;6.93;;
8094;SDS011;4090;49.270;8.696;2023-12-04T11:45:31;14.40;;;6.83;;
8094;SDS011;4090;49.270;8.696;2023-12-04T11:48:14;12.75;;;6.65;;
8094;SDS011;4090;49.270;8.696;2023-12-04T11:50:57;12.07;;;6.30;;
8094;SDS011;4090;49.270;8.696;2023-12-04T11:53:40;13.40;;;7.20;;
8094;SDS011;4090;49.270;8.696;2023-12-04T11:56:22;11.03;;;6.37;;
8094;SDS011;4090;49.270;8.696;2023-12-04T11:59:05;15.52;;;6.63;;
8094;SDS011;4090;49.270;8.696;2023-12-04T12:01:49;12.67;;;6.57;;
8094;SDS011;4090;49.270;8.696;2023-12-04T12:04:32;16.08;;;7.95;;
8094;SDS011;4090;49.270;8.696;2023-12-04T12:07:14;16.30;;;7.25;;
8094;SDS011;4090;49.270;8.696;2023-12-04T12:09:57;13.43;;;6.77;;
8094;SDS011;4090;49.270;8.696;2023-12-04T12:12:40;14.82;;;7.13;;
8094;SDS011;4090;49.270;8.696;2023-12-04T12:15:22;14.75;;;7.20;;
8094;SDS011;4090;49.270;8.696;2023-12-04T12:18:05;17.13;;;7.37;;
8094;SDS011;4090;49.270;8.696;2023-12-04T12:20:47;13.02;;;6.82;;
8094;SDS011;4090;49.270;8.696;2023-12-04T12:23:29;13.60;;;7.43;;
8094;SDS011;4090;49.270;8.696;2023-12-04T12:26:13;13.17;;;6.90;;
8094;SDS011;4090;49.270;8.696;2023-12-04T12:28:55;15.20;;;7.07;;
8094;SDS011;4090;49.270;8.696;2023-12-04T12:31:37;16.50;;;7.85;;
8094;SDS011;4090;49.270;8.696;2023-12-04T12:34:19;14.17;;;6.73;;
8094;SDS011;4090;49.270;8.696;2023-12-04T12:37:01;16.30;;;7.67;;
8094;SDS011;4090;49.270;8.696;2023-12-04T12:39:43;14.23;;;7.70;;
8094;SDS011;4090;49.270;8.696;2023-12-04T12:42:27;15.23;;;7.33;;
8094;SDS011;4090;49.270;8.696;2023-12-04T12:45:09;15.47;;;7.33;;
8094;SDS011;4090;49.270;8.696;2023-12-04T12:47:52;13.37;;;7.90;;
8094;SDS011;4090;49.270;8.696;2023-12-04T12:50:34;14.87;;;7.27;;
8094;SDS011;4090;49.270;8.696;2023-12-04T12:53:17;15.70;;;7.60;;
8094;SDS011;4090;49.270;8.696;2023-12-04T12:55:59;14.57;;;7.10;;
8094;SDS011;4090;49.270;8.696;2023-12-04T12:58:43;14.57;;;7.60;;
8094;SDS011;4090;49.270;8.696;2023-12-04T13:01:24;15.77;;;7.40;;
8094;SDS011;4090;49.270;8.696;2023-12-04T13:04:13;18.77;;;7.90;;
8094;SDS011;4090;49.270;8.696;2023-12-04T13:06:56;15.37;;;7.57;;
8094;SDS011;4090;49.270;8.696;2023-12-04T13:09:38;15.23;;;7.17;;
8094;SDS011;4090;49.270;8.696;2023-12-04T13:12:20;14.40;;;6.95;;
8094;SDS011;4090;49.270;8.696;2023-12-04T13:15:04;15.60;;;7.73;;
8094;SDS011;4090;49.270;8.696;2023-12-04T13:17:46;18.27;;;8.43;;
8094;SDS011;4090;49.270;8.696;2023-12-04T13:20:28;16.55;;;8.10;;
8094;SDS011;4090;49.270;8.696;2023-12-04T13:23:10;18.17;;;7.87;;
8094;SDS011;4090;49.270;8.696;2023-12-04T13:25:52;18.17;;;8.50;;
8094;SDS011;4090;49.270;8.696;2023-12-04T13:28:34;20.27;;;8.77;;
8094;SDS011;4090;49.270;8.696;2023-12-04T13:31:18;16.85;;;8.40;;
8094;SDS011;4090;49.270;8.696;2023-12-04T13:34:00;16.35;;;7.55;;
8094;SDS011;4090;49.270;8.696;2023-12-04T13:36:43;16.20;;;7.30;;
8094;SDS011;4090;49.270;8.696;2023-12-04T13:39:25;15.60;;;8.43;;
8094;SDS011;4090;49.270;8.696;2023-12-04T13:42:27;14.68;;;7.60;;
8094;SDS011;4090;49.270;8.696;2023-12-04T13:45:26;20.17;;;7.97;;
8094;SDS011;4090;49.270;8.696;2023-12-04T13:48:09;16.77;;;8.10;;
8094;SDS011;4090;49.270;8.696;2023-12-04T13:50:51;16.47;;;7.87;;
8094;SDS011;4090;49.270;8.696;2023-12-04T13:53:33;17.40;;;8.07;;
8094;SDS011;4090;49.270;8.696;2023-12-04T13:56:16;16.20;;;8.37;;
8094;SDS011;4090;49.270;8.696;2023-12-04T13:59:15;20.50;;;8.18;;
8094;SDS011;4090;49.270;8.696;2023-12-04T14:02:00;18.75;;;8.38;;
8094;SDS011;4090;49.270;8.696;2023-12-04T14:04:46;17.90;;;8.95;;
8094;SDS011;4090;49.270;8.696;2023-12-04T14:07:28;16.35;;;7.43;;
8094;SDS011;4090;49.270;8.696;2023-12-04T14:10:10;19.53;;;8.60;;
8094;SDS011;4090;49.270;8.696;2023-12-04T14:12:52;19.03;;;8.50;;
8094;SDS011;4090;49.270;8.696;2023-12-04T14:15:34;19.05;;;8.52;;
8094;SDS011;4090;49.270;8.696;2023-12-04T14:18:16;17.53;;;8.20;;
8094;SDS011;4090;49.270;8.696;2023-12-04T14:20:59;19.65;;;8.25;;
8094;SDS011;4090;49.270;8.696;2023-12-04T14:23:41;20.70;;;8.85;;
8094;SDS011;4090;49.270;8.696;2023-12-04T14:26:23;21.27;;;8.48;;
8094;SDS011;4090;49.270;8.696;2023-12-04T14:29:05;22.27;;;9.47;;
8094;SDS011;4090;49.270;8.696;2023-12-04T14:31:48;19.03;;;8.43;;
8094;SDS011;4090;49.270;8.696;2023-12-04T14:34:30;22.98;;;9.52;;
8094;SDS011;4090;49.270;8.696;2023-12-04T14:37:14;22.17;;;8.73;;
8094;SDS011;4090;49.270;8.696;2023-12-04T14:39:56;17.85;;;7.65;;
8094;SDS011;4090;49.270;8.696;2023-12-04T14:42:38;21.67;;;9.90;;
8094;SDS011;4090;49.270;8.696;2023-12-04T14:45:20;21.03;;;8.70;;
8094;SDS011;4090;49.270;8.696;2023-12-04T14:48:02;20.73;;;8.07;;
8094;SDS011;4090;49.270;8.696;2023-12-04T14:50:47;21.95;;;9.20;;
8094;SDS011;4090;49.270;8.696;2023-12-04T14:53:30;17.10;;;7.87;;
8094;SDS011;4090;49.270;8.696;2023-12-04T14:56:23;24.47;;;8.33;;
8094;SDS011;4090;49.270;8.696;2023-12-04T14:59:49;15.80;;;7.97;;
8094;SDS011;4090;49.270;8.696;2023-12-04T15:02:54;16.48;;;7.82;;
8094;SDS011;4090;49.270;8.696;2023-12-04T15:05:53;12.98;;;6.93;;
8094;SDS011;4090;49.270;8.696;2023-12-04T15:09:10;14.27;;;6.80;;
8094;SDS011;4090;49.270;8.696;2023-12-04T15:12:18;18.20;;;7.77;;
8094;SDS011;4090;49.270;8.696;2023-12-04T15:15:08;14.13;;;7.57;;
8094;SDS011;4090;49.270;8.696;2023-12-04T15:17:55;13.07;;;7.33;;
8094;SDS011;4090;49.270;8.696;2023-12-04T15:20:57;15.37;;;7.53;;
8094;SDS011;4090;49.270;8.696;2023-12-04T15:23:38;14.77;;;7.35;;
8094;SDS011;4090;49.270;8.696;2023-12-04T15:26:21;16.17;;;7.80;;
8094;SDS011;4090;49.270;8.696;2023-12-04T15:29:02;18.73;;;8.25;;
8094;SDS011;4090;49.270;8.696;2023-12-04T15:31:44;19.20;;;8.73;;
8094;SDS011;4090;49.270;8.696;2023-12-04T15:34:25;20.63;;;9.23;;
8094;SDS011;4090;49.270;8.696;2023-12-04T15:37:07;18.15;;;8.15;;
8094;SDS011;4090;49.270;8.696;2023-12-04T15:39:48;17.92;;;9.18;;
8094;SDS011;4090;49.270;8.696;2023-12-04T15:42:32;19.33;;;8.88;;
8094;SDS011;4090;49.270;8.696;2023-12-04T15:45:13;19.57;;;9.33;;
8094;SDS011;4090;49.270;8.696;2023-12-04T15:47:54;18.70;;;8.70;;
8094;SDS011;4090;49.270;8.696;2023-12-04T15:50:35;16.03;;;8.50;;
8094;SDS011;4090;49.270;8.696;2023-12-04T15:53:18;20.27;;;8.37;;
8094;SDS011;4090;49.270;8.696;2023-12-04T15:55:58;16.27;;;8.47;;
8094;SDS011;4090;49.270;8.696;2023-12-04T15:58:42;16.98;;;8.63;;
8094;SDS011;4090;49.270;8.696;2023-12-04T16:01:22;19.10;;;8.77;;
8094;SDS011;4090;49.270;8.696;2023-12-04T16:04:04;15.98;;;7.78;;
8094;SDS011;4090;49.270;8.696;2023-12-04T16:06:46;21.63;;;8.67;;
8094;SDS011;4090;49.270;8.696;2023-12-04T16:09:28;19.35;;;8.02;;
8094;SDS011;4090;49.270;8.696;2023-12-04T16:12:11;19.13;;;8.20;;
8094;SDS011;4090;49.270;8.696;2023-12-04T16:14:54;19.90;;;9.15;;
8094;SDS011;4090;49.270;8.696;2023-12-04T16:17:36;19.85;;;9.13;;
8094;SDS011;4090;49.270;8.696;2023-12-04T16:20:19;19.10;;;8.63;;
8094;SDS011;4090;49.270;8.696;2023-12-04T16:23:00;18.23;;;8.67;;
8094;SDS011;4090;49.270;8.696;2023-12-04T16:25:43;18.80;;;8.32;;
8094;SDS011;4090;49.270;8.696;2023-12-04T16:28:25;16.58;;;8.75;;
8094;SDS011;4090;49.270;8.696;2023-12-04T16:31:08;17.58;;;8.45;;
8094;SDS011;4090;49.270;8.696;2023-12-04T16:33:50;19.02;;;8.57;;
8094;SDS011;4090;49.270;8.696;2023-12-04T16:36:32;16.38;;;8.27;;